sensor_id;sensor_type;location;lat;lon;timestamp;pressure;altitude;pressure_sealevel;temperature;humidity
43553;BME280;29153;42.696;23.218;2023-10-09T00:01:47;94955.70;;;17.28;66.11
43553;BME280;29153;42.696;23.218;2023-10-09T00:04:15;94953.13;;;17.23;66.43
43553;BME280;29153;42.696;23.218;2023-10-09T00:06:42;94953.13;;;17.23;66.43
43553;BME280;29153;42.696;23.218;2023-10-09T00:09:10;94959.65;;;17.19;66.39
43553;BME280;29153;42.696;23.218;2023-10-09T00:11:46;94954.63;;;17.04;66.77
43553;BME280;29153;42.696;23.218;2023-10-09T00:14:14;94954.63;;;17.04;66.77
43553;BME280;29153;42.696;23.218;2023-10-09T00:16:45;94958.72;;;17.02;66.65
43553;BME280;29153;42.696;23.218;2023-10-09T00:19:17;94962.77;;;16.99;66.96
43553;BME280;29153;42.696;23.218;2023-10-09T00:21:47;94951.02;;;16.87;67.51
43553;BME280;29153;42.696;23.218;2023-10-09T00:24:15;94951.56;;;16.86;67.12
43553;BME280;29153;42.696;23.218;2023-10-09T00:26:54;94947.47;;;16.77;67.69
43553;BME280;29153;42.696;23.218;2023-10-09T00:29:18;94944.03;;;16.77;67.85
43553;BME280;29153;42.696;23.218;2023-10-09T00:31:50;94946.41;;;16.65;68.13
43553;BME280;29153;42.696;23.218;2023-10-09T00:34:19;94942.97;;;16.51;69.04
43553;BME280;29153;42.696;23.218;2023-10-09T00:36:48;94942.13;;;16.39;69.98
43553;BME280;29153;42.696;23.218;2023-10-09T00:39:20;94945.11;;;16.37;70.06
43553;BME280;29153;42.696;23.218;2023-10-09T00:42:04;94940.84;;;16.36;70.01
43553;BME280;29153;42.696;23.218;2023-10-09T00:44:34;94946.39;;;16.26;69.98
43553;BME280;29153;42.696;23.218;2023-10-09T00:47:09;94950.75;;;16.22;69.94
43553;BME280;29153;42.696;23.218;2023-10-09T00:49:39;94955.71;;;16.15;70.53
43553;BME280;29153;42.696;23.218;2023-10-09T00:52:09;94955.45;;;16.14;70.64
43553;BME280;29153;42.696;23.218;2023-10-09T00:54:39;94898.70;;;15.65;70.90
43553;BME280;29153;42.696;23.218;2023-10-09T00:57:07;94953.24;;;15.91;70.89
43553;BME280;29153;42.696;23.218;2023-10-09T00:59:37;94940.26;;;15.85;71.10
43553;BME280;29153;42.696;23.218;2023-10-09T01:02:06;94942.03;;;15.76;71.47
43553;BME280;29153;42.696;23.218;2023-10-09T01:04:33;94952.43;;;15.77;71.12
43553;BME280;29153;42.696;23.218;2023-10-09T01:07:03;94967.27;;;15.70;70.72
43553;BME280;29153;42.696;23.218;2023-10-09T01:09:39;94968.08;;;15.68;70.09
43553;BME280;29153;42.696;23.218;2023-10-09T01:12:08;94977.38;;;15.70;69.79
43553;BME280;29153;42.696;23.218;2023-10-09T01:14:37;94977.31;;;15.59;69.51
43553;BME280;29153;42.696;23.218;2023-10-09T01:17:06;94988.44;;;15.47;69.17
43553;BME280;29153;42.696;23.218;2023-10-09T01:19:42;94999.89;;;15.51;69.11
43553;BME280;29153;42.696;23.218;2023-10-09T01:22:10;95002.45;;;15.39;69.03
43553;BME280;29153;42.696;23.218;2023-10-09T01:24:42;95010.48;;;15.37;69.33
43553;BME280;29153;42.696;23.218;2023-10-09T01:27:10;95000.14;;;15.33;69.69
43553;BME280;29153;42.696;23.218;2023-10-09T01:29:40;95002.67;;;15.24;69.83
43553;BME280;29153;42.696;23.218;2023-10-09T01:32:09;94988.66;;;15.16;69.43
43553;BME280;29153;42.696;23.218;2023-10-09T01:34:38;94971.89;;;14.97;69.98
43553;BME280;29153;42.696;23.218;2023-10-09T01:37:09;94962.36;;;14.91;70.42
43553;BME280;29153;42.696;23.218;2023-10-09T01:39:49;94975.89;;;14.97;70.29
43553;BME280;29153;42.696;23.218;2023-10-09T01:42:18;94991.42;;;14.92;70.47
43553;BME280;29153;42.696;23.218;2023-10-09T01:44:54;95034.13;;;14.71;72.35
43553;BME280;29153;42.696;23.218;2023-10-09T01:47:22;95034.13;;;14.71;72.35
43553;BME280;29153;42.696;23.218;2023-10-09T01:49:49;95023.53;;;14.64;73.16
43553;BME280;29153;42.696;23.218;2023-10-09T01:52:19;95017.44;;;14.61;73.90
43553;BME280;29153;42.696;23.218;2023-10-09T01:54:50;95016.16;;;14.58;74.36
43553;BME280;29153;42.696;23.218;2023-10-09T01:57:18;95021.23;;;14.57;74.75
43553;BME280;29153;42.696;23.218;2023-10-09T01:59:51;95021.77;;;14.56;74.17
43553;BME280;29153;42.696;23.218;2023-10-09T02:02:23;95028.22;;;14.50;74.54
43553;BME280;29153;42.696;23.218;2023-10-09T02:04:57;95022.28;;;14.37;74.30
43553;BME280;29153;42.696;23.218;2023-10-09T02:07:36;95031.89;;;14.33;75.17
43553;BME280;29153;42.696;23.218;2023-10-09T02:10:08;95036.39;;;14.11;75.66
43553;BME280;29153;42.696;23.218;2023-10-09T02:12:55;95036.39;;;14.11;75.66
43553;BME280;29153;42.696;23.218;2023-10-09T02:15:30;95046.78;;;14.10;75.75
43553;BME280;29153;42.696;23.218;2023-10-09T02:18:18;95055.21;;;13.91;74.94
43553;BME280;29153;42.696;23.218;2023-10-09T02:20:52;95055.21;;;13.91;74.94
43553;BME280;29153;42.696;23.218;2023-10-09T02:23:24;95063.73;;;13.91;76.24
43553;BME280;29153;42.696;23.218;2023-10-09T02:25:57;95052.36;;;13.83;76.12
43553;BME280;29153;42.696;23.218;2023-10-09T02:29:03;95052.36;;;13.83;76.12
43553;BME280;29153;42.696;23.218;2023-10-09T02:31:33;95065.45;;;13.79;75.23
43553;BME280;29153;42.696;23.218;2023-10-09T02:34:05;95073.17;;;13.81;74.84
43553;BME280;29153;42.696;23.218;2023-10-09T02:36:32;95077.61;;;13.59;74.98
43553;BME280;29153;42.696;23.218;2023-10-09T02:39:02;95062.94;;;13.61;74.44
43553;BME280;29153;42.696;23.218;2023-10-09T02:41:31;95062.94;;;13.61;74.44
43553;BME280;29153;42.696;23.218;2023-10-09T02:44:00;95072.81;;;13.58;74.87
43553;BME280;29153;42.696;23.218;2023-10-09T02:46:29;95081.16;;;13.47;74.96
43553;BME280;29153;42.696;23.218;2023-10-09T02:48:57;95058.07;;;13.37;74.69
43553;BME280;29153;42.696;23.218;2023-10-09T02:51:26;95067.45;;;13.27;75.04
43553;BME280;29153;42.696;23.218;2023-10-09T02:54:00;95067.45;;;13.27;75.04
43553;BME280;29153;42.696;23.218;2023-10-09T02:56:36;95066.09;;;13.32;74.64
43553;BME280;29153;42.696;23.218;2023-10-09T02:59:05;95075.52;;;13.17;74.52
43553;BME280;29153;42.696;23.218;2023-10-09T03:01:38;95081.04;;;13.23;74.10
43553;BME280;29153;42.696;23.218;2023-10-09T03:04:06;95086.13;;;13.22;74.62
43553;BME280;29153;42.696;23.218;2023-10-09T03:06:36;95094.16;;;13.12;74.67
43553;BME280;29153;42.696;23.218;2023-10-09T03:09:05;95095.22;;;13.11;74.77
43553;BME280;29153;42.696;23.218;2023-10-09T03:11:34;95092.59;;;12.98;75.11
43553;BME280;29153;42.696;23.218;2023-10-09T03:14:03;95103.48;;;13.02;75.89
43553;BME280;29153;42.696;23.218;2023-10-09T03:16:31;95110.41;;;12.98;76.06
43553;BME280;29153;42.696;23.218;2023-10-09T03:18:59;95105.63;;;12.97;76.55
43553;BME280;29153;42.696;23.218;2023-10-09T03:21:28;95101.95;;;12.91;77.28
43553;BME280;29153;42.696;23.218;2023-10-09T03:23:56;95102.78;;;12.81;77.01
43553;BME280;29153;42.696;23.218;2023-10-09T03:26:24;95106.80;;;12.71;77.17
43553;BME280;29153;42.696;23.218;2023-10-09T03:28:52;95107.90;;;12.62;76.79
43553;BME280;29153;42.696;23.218;2023-10-09T03:31:19;95118.02;;;12.60;77.68
43553;BME280;29153;42.696;23.218;2023-10-09T03:33:48;95118.82;;;12.61;76.42
43553;BME280;29153;42.696;23.218;2023-10-09T03:36:15;95116.72;;;12.45;77.99
43553;BME280;29153;42.696;23.218;2023-10-09T03:38:43;95119.65;;;12.46;77.28
43553;BME280;29153;42.696;23.218;2023-10-09T03:41:10;95123.41;;;12.40;77.35
43553;BME280;29153;42.696;23.218;2023-10-09T03:43:39;95123.41;;;12.40;77.35
43553;BME280;29153;42.696;23.218;2023-10-09T03:46:11;95133.77;;;12.39;77.01
43553;BME280;29153;42.696;23.218;2023-10-09T03:48:43;95136.41;;;12.44;76.86
43553;BME280;29153;42.696;23.218;2023-10-09T03:51:12;95133.77;;;12.34;76.74
43553;BME280;29153;42.696;23.218;2023-10-09T03:53:42;95133.25;;;12.19;77.20
43553;BME280;29153;42.696;23.218;2023-10-09T03:56:09;95127.42;;;12.12;77.72
43553;BME280;29153;42.696;23.218;2023-10-09T03:58:47;95139.12;;;12.09;77.65
43553;BME280;29153;42.696;23.218;2023-10-09T04:01:17;95142.31;;;12.06;77.07
43553;BME280;29153;42.696;23.218;2023-10-09T04:03:46;95139.92;;;12.09;76.66
43553;BME280;29153;42.696;23.218;2023-10-09T04:06:14;95136.98;;;12.11;77.59
43553;BME280;29153;42.696;23.218;2023-10-09T04:08:44;95147.63;;;11.96;77.32
43553;BME280;29153;42.696;23.218;2023-10-09T04:11:14;95147.63;;;11.96;77.32
43553;BME280;29153;42.696;23.218;2023-10-09T04:13:46;95141.80;;;11.94;76.56
43553;BME280;29153;42.696;23.218;2023-10-09T04:16:13;95144.45;;;11.94;77.62
43553;BME280;29153;42.696;23.218;2023-10-09T04:18:48;95141.78;;;11.83;77.37
43553;BME280;29153;42.696;23.218;2023-10-09T04:21:16;95135.67;;;11.85;77.22
43553;BME280;29153;42.696;23.218;2023-10-09T04:23:47;95132.22;;;11.77;75.90
43553;BME280;29153;42.696;23.218;2023-10-09T04:26:28;95142.33;;;11.80;76.20
43553;BME280;29153;42.696;23.218;2023-10-09T04:28:55;95143.06;;;11.68;76.06
43553;BME280;29153;42.696;23.218;2023-10-09T04:31:23;95153.45;;;11.72;76.60
43553;BME280;29153;42.696;23.218;2023-10-09T04:33:52;95158.75;;;11.72;76.02
43553;BME280;29153;42.696;23.218;2023-10-09T04:36:24;95156.65;;;11.74;76.13
43553;BME280;29153;42.696;23.218;2023-10-09T04:38:54;95147.05;;;11.68;75.80
43553;BME280;29153;42.696;23.218;2023-10-09T04:41:26;95151.29;;;11.64;74.23
43553;BME280;29153;42.696;23.218;2023-10-09T04:43:58;95145.47;;;11.62;73.71
43553;BME280;29153;42.696;23.218;2023-10-09T04:46:43;95142.55;;;11.59;72.96
43553;BME280;29153;42.696;23.218;2023-10-09T04:49:11;95142.53;;;11.69;71.88
43553;BME280;29153;42.696;23.218;2023-10-09T04:51:49;95155.02;;;11.58;72.02
43553;BME280;29153;42.696;23.218;2023-10-09T04:54:33;95107.47;;;11.19;72.55
43553;BME280;29153;42.696;23.218;2023-10-09T04:57:09;95159.78;;;11.56;71.19
43553;BME280;29153;42.696;23.218;2023-10-09T04:59:38;95131.11;;;11.48;70.24
43553;BME280;29153;42.696;23.218;2023-10-09T05:02:07;95160.59;;;11.62;70.60
43553;BME280;29153;42.696;23.218;2023-10-09T05:04:36;95157.67;;;11.58;69.64
43553;BME280;29153;42.696;23.218;2023-10-09T05:07:06;95163.23;;;11.54;69.54
43553;BME280;29153;42.696;23.218;2023-10-09T05:09:51;95168.52;;;11.44;69.65
43553;BME280;29153;42.696;23.218;2023-10-09T05:12:39;95166.13;;;11.55;68.53
43553;BME280;29153;42.696;23.218;2023-10-09T05:15:08;95171.46;;;11.50;69.07
43553;BME280;29153;42.696;23.218;2023-10-09T05:17:37;95147.78;;;11.26;69.12
43553;BME280;29153;42.696;23.218;2023-10-09T05:20:06;95183.65;;;11.49;69.76
43553;BME280;29153;42.696;23.218;2023-10-09T05:22:48;95183.63;;;11.43;69.70
43553;BME280;29153;42.696;23.218;2023-10-09T05:25:25;95188.95;;;11.41;69.38
43553;BME280;29153;42.696;23.218;2023-10-09T05:28:11;95187.09;;;11.41;71.38
43553;BME280;29153;42.696;23.218;2023-10-09T05:30:57;95195.81;;;11.34;69.95
43553;BME280;29153;42.696;23.218;2023-10-09T05:33:36;95198.73;;;11.35;70.46
43553;BME280;29153;42.696;23.218;2023-10-09T05:36:05;95200.06;;;11.33;68.91
43553;BME280;29153;42.696;23.218;2023-10-09T05:38:53;95206.45;;;11.45;68.66
43553;BME280;29153;42.696;23.218;2023-10-09T05:41:29;95213.36;;;11.48;70.00
43553;BME280;29153;42.696;23.218;2023-10-09T05:44:16;95217.86;;;11.48;68.94
43553;BME280;29153;42.696;23.218;2023-10-09T05:47:01;95220.27;;;11.52;66.44
43553;BME280;29153;42.696;23.218;2023-10-09T05:49:46;95220.55;;;11.60;67.30
43553;BME280;29153;42.696;23.218;2023-10-09T05:52:15;95228.24;;;11.57;68.29
43553;BME280;29153;42.696;23.218;2023-10-09T05:55:01;95235.95;;;11.58;67.43
43553;BME280;29153;42.696;23.218;2023-10-09T05:57:46;95237.85;;;11.73;66.26
43553;BME280;29153;42.696;23.218;2023-10-09T06:00:25;95245.08;;;11.93;64.60
43553;BME280;29153;42.696;23.218;2023-10-09T06:03:11;95253.29;;;11.91;64.55
43553;BME280;29153;42.696;23.218;2023-10-09T06:05:54;95257.83;;;12.16;62.75
43553;BME280;29153;42.696;23.218;2023-10-09T06:08:27;95257.83;;;12.16;62.75
43553;BME280;29153;42.696;23.218;2023-10-09T06:11:09;95258.90;;;12.17;62.28
43553;BME280;29153;42.696;23.218;2023-10-09T06:13:55;95260.22;;;12.20;62.17
43553;BME280;29153;42.696;23.218;2023-10-09T06:16:37;95262.61;;;12.29;61.70
43553;BME280;29153;42.696;23.218;2023-10-09T06:19:25;95267.14;;;12.31;62.84
43553;BME280;29153;42.696;23.218;2023-10-09T06:22:00;95272.19;;;12.22;61.94
43553;BME280;29153;42.696;23.218;2023-10-09T06:24:32;95283.34;;;12.35;61.95
43553;BME280;29153;42.696;23.218;2023-10-09T06:27:09;95282.82;;;12.35;62.03
43553;BME280;29153;42.696;23.218;2023-10-09T06:29:40;95282.30;;;12.41;65.12
43553;BME280;29153;42.696;23.218;2023-10-09T06:32:13;95278.03;;;12.42;64.59
43553;BME280;29153;42.696;23.218;2023-10-09T06:34:58;95283.08;;;12.56;60.70
43553;BME280;29153;42.696;23.218;2023-10-09T06:37:47;95287.07;;;12.61;62.17
43553;BME280;29153;42.696;23.218;2023-10-09T06:40:37;95284.13;;;12.63;57.92
43553;BME280;29153;42.696;23.218;2023-10-09T06:43:23;95285.73;;;12.74;62.90
43553;BME280;29153;42.696;23.218;2023-10-09T06:45:54;95290.25;;;12.78;59.44
43553;BME280;29153;42.696;23.218;2023-10-09T06:48:25;95289.94;;;12.93;58.80
43553;BME280;29153;42.696;23.218;2023-10-09T06:51:06;95292.61;;;12.95;56.99
43553;BME280;29153;42.696;23.218;2023-10-09T06:53:57;95290.75;;;13.13;56.54
43553;BME280;29153;42.696;23.218;2023-10-09T06:56:35;95290.45;;;13.20;55.73
43553;BME280;29153;42.696;23.218;2023-10-09T06:59:05;95290.45;;;13.20;55.73
43553;BME280;29153;42.696;23.218;2023-10-09T07:01:50;95289.62;;;13.35;57.45
43553;BME280;29153;42.696;23.218;2023-10-09T07:04:38;95290.09;;;13.52;55.08
43553;BME280;29153;42.696;23.218;2023-10-09T07:07:07;95281.80;;;13.58;54.22
43553;BME280;29153;42.696;23.218;2023-10-09T07:09:37;95284.13;;;13.73;50.28
43553;BME280;29153;42.696;23.218;2023-10-09T07:12:12;95286.39;;;13.97;51.37
43553;BME280;29153;42.696;23.218;2023-10-09T07:14:50;95289.16;;;14.59;48.30
43553;BME280;29153;42.696;23.218;2023-10-09T07:17:19;95289.16;;;14.59;48.30
43553;BME280;29153;42.696;23.218;2023-10-09T07:19:52;95295.33;;;14.89;47.22
43553;BME280;29153;42.696;23.218;2023-10-09T07:22:23;95292.55;;;15.25;48.33
43553;BME280;29153;42.696;23.218;2023-10-09T07:24:53;95294.48;;;15.70;44.15
43553;BME280;29153;42.696;23.218;2023-10-09T07:27:25;95294.48;;;15.70;44.15
43553;BME280;29153;42.696;23.218;2023-10-09T07:30:12;95296.09;;;15.89;43.71
43553;BME280;29153;42.696;23.218;2023-10-09T07:32:57;95293.95;;;16.26;44.04
43553;BME280;29153;42.696;23.218;2023-10-09T07:35:27;95287.06;;;16.42;42.75
43553;BME280;29153;42.696;23.218;2023-10-09T07:38:19;95293.04;;;16.71;44.67
43553;BME280;29153;42.696;23.218;2023-10-09T07:40:50;95229.83;;;16.08;40.31
43553;BME280;29153;42.696;23.218;2023-10-09T07:43:27;95302.38;;;16.55;39.30
43553;BME280;29153;42.696;23.218;2023-10-09T07:45:54;95301.36;;;17.02;40.18
43553;BME280;29153;42.696;23.218;2023-10-09T07:48:26;95293.61;;;17.00;40.51
43553;BME280;29153;42.696;23.218;2023-10-09T07:50:55;95300.64;;;16.96;40.33
43553;BME280;29153;42.696;23.218;2023-10-09T07:53:26;95295.80;;;17.28;41.05
43553;BME280;29153;42.696;23.218;2023-10-09T07:55:55;95293.14;;;17.25;37.97
43553;BME280;29153;42.696;23.218;2023-10-09T07:58:28;95294.61;;;17.48;39.91
43553;BME280;29153;42.696;23.218;2023-10-09T08:00:57;95301.92;;;17.28;38.23
43553;BME280;29153;42.696;23.218;2023-10-09T08:03:26;95301.92;;;17.28;38.23
43553;BME280;29153;42.696;23.218;2023-10-09T08:05:55;95302.00;;;17.40;38.84
43553;BME280;29153;42.696;23.218;2023-10-09T08:08:25;95298.58;;;17.37;38.38
43553;BME280;29153;42.696;23.218;2023-10-09T08:10:57;95302.60;;;17.37;39.52
43553;BME280;29153;42.696;23.218;2023-10-09T08:13:42;95298.13;;;17.32;39.80
43553;BME280;29153;42.696;23.218;2023-10-09T08:16:27;95298.78;;;17.40;38.16
43553;BME280;29153;42.696;23.218;2023-10-09T08:18:56;95305.06;;;17.47;38.56
43553;BME280;29153;42.696;23.218;2023-10-09T08:21:25;95296.70;;;16.91;39.21
43553;BME280;29153;42.696;23.218;2023-10-09T08:23:54;95305.80;;;17.22;41.52
43553;BME280;29153;42.696;23.218;2023-10-09T08:26:22;95299.25;;;17.15;38.51
43553;BME280;29153;42.696;23.218;2023-10-09T08:28:56;95290.47;;;17.25;42.69
43553;BME280;29153;42.696;23.218;2023-10-09T08:31:28;95290.47;;;17.25;42.69
43553;BME280;29153;42.696;23.218;2023-10-09T08:34:06;95285.68;;;17.52;39.80
43553;BME280;29153;42.696;23.218;2023-10-09T08:36:35;95285.68;;;17.52;39.80
43553;BME280;29153;42.696;23.218;2023-10-09T08:39:03;95278.86;;;17.60;39.52
43553;BME280;29153;42.696;23.218;2023-10-09T08:41:48;95276.11;;;17.49;36.69
43553;BME280;29153;42.696;23.218;2023-10-09T08:44:20;95271.12;;;17.42;38.59
43553;BME280;29153;42.696;23.218;2023-10-09T08:46:50;95255.51;;;17.47;36.45
43553;BME280;29153;42.696;23.218;2023-10-09T08:49:20;95249.86;;;17.48;38.72
43553;BME280;29153;42.696;23.218;2023-10-09T08:51:51;95254.22;;;17.71;38.80
43553;BME280;29153;42.696;23.218;2023-10-09T08:54:20;95239.69;;;17.48;37.83
43553;BME280;29153;42.696;23.218;2023-10-09T08:56:47;95239.69;;;17.48;37.83
43553;BME280;29153;42.696;23.218;2023-10-09T08:59:19;95253.59;;;17.63;37.98
43553;BME280;29153;42.696;23.218;2023-10-09T09:01:48;95247.21;;;17.62;37.06
43553;BME280;29153;42.696;23.218;2023-10-09T09:04:40;95248.92;;;17.69;38.70
43553;BME280;29153;42.696;23.218;2023-10-09T09:07:05;95239.98;;;17.98;39.05
43553;BME280;29153;42.696;23.218;2023-10-09T09:09:33;95244.47;;;17.89;34.88
43553;BME280;29153;42.696;23.218;2023-10-09T09:12:01;95242.80;;;18.04;36.41
43553;BME280;29153;42.696;23.218;2023-10-09T09:14:37;95257.08;;;18.13;37.51
43553;BME280;29153;42.696;23.218;2023-10-09T09:17:06;95262.24;;;17.85;34.50
43553;BME280;29153;42.696;23.218;2023-10-09T09:19:35;95261.94;;;18.00;34.38
43553;BME280;29153;42.696;23.218;2023-10-09T09:22:04;95257.45;;;18.09;35.34
43553;BME280;29153;42.696;23.218;2023-10-09T09:24:40;95249.04;;;18.13;35.25
43553;BME280;29153;42.696;23.218;2023-10-09T09:27:09;95248.56;;;18.34;34.52
43553;BME280;29153;42.696;23.218;2023-10-09T09:29:40;95253.80;;;18.52;33.79
43553;BME280;29153;42.696;23.218;2023-10-09T09:32:10;95239.09;;;18.61;35.19
43553;BME280;29153;42.696;23.218;2023-10-09T09:34:51;95239.98;;;18.68;35.13
43553;BME280;29153;42.696;23.218;2023-10-09T09:37:25;95228.30;;;18.52;33.05
43553;BME280;29153;42.696;23.218;2023-10-09T09:40:02;95228.08;;;18.38;35.65
43553;BME280;29153;42.696;23.218;2023-10-09T09:42:32;95233.78;;;18.70;33.28
43553;BME280;29153;42.696;23.218;2023-10-09T09:45:01;95224.29;;;18.50;33.35
43553;BME280;29153;42.696;23.218;2023-10-09T09:47:31;95229.80;;;18.78;34.12
43553;BME280;29153;42.696;23.218;2023-10-09T09:50:02;95221.97;;;18.79;33.10
43553;BME280;29153;42.696;23.218;2023-10-09T09:52:41;95228.55;;;18.84;32.81
43553;BME280;29153;42.696;23.218;2023-10-09T09:55:10;95231.95;;;18.98;35.83
43553;BME280;29153;42.696;23.218;2023-10-09T09:57:47;95218.47;;;19.21;33.59
43553;BME280;29153;42.696;23.218;2023-10-09T10:00:25;95216.45;;;19.35;34.36
43553;BME280;29153;42.696;23.218;2023-10-09T10:03:03;95208.00;;;18.91;32.55
43553;BME280;29153;42.696;23.218;2023-10-09T10:05:27;95203.09;;;19.13;33.23
43553;BME280;29153;42.696;23.218;2023-10-09T10:07:57;95196.08;;;19.14;30.62
43553;BME280;29153;42.696;23.218;2023-10-09T10:10:38;95198.30;;;19.12;32.32
43553;BME280;29153;42.696;23.218;2023-10-09T10:13:07;95193.00;;;19.18;29.96
43553;BME280;29153;42.696;23.218;2023-10-09T10:16:28;95183.60;;;19.18;29.45
43553;BME280;29153;42.696;23.218;2023-10-09T10:18:34;95174.75;;;19.18;30.76
43553;BME280;29153;42.696;23.218;2023-10-09T10:21:11;95165.09;;;19.36;32.11
43553;BME280;29153;42.696;23.218;2023-10-09T10:23:41;95157.11;;;19.62;31.64
43553;BME280;29153;42.696;23.218;2023-10-09T10:26:21;95155.78;;;19.71;32.64
43553;BME280;29153;42.696;23.218;2023-10-09T10:29:14;95155.64;;;19.84;31.92
43553;BME280;29153;42.696;23.218;2023-10-09T10:31:58;95140.75;;;19.78;32.15
43553;BME280;29153;42.696;23.218;2023-10-09T10:34:51;95133.57;;;19.76;31.82
43553;BME280;29153;42.696;23.218;2023-10-09T10:36:57;95119.79;;;19.69;30.42
43553;BME280;29153;42.696;23.218;2023-10-09T10:39:26;95108.98;;;19.80;31.87
43553;BME280;29153;42.696;23.218;2023-10-09T10:42:09;95108.88;;;20.00;32.49
43553;BME280;29153;42.696;23.218;2023-10-09T10:44:38;95111.11;;;19.89;32.27
43553;BME280;29153;42.696;23.218;2023-10-09T10:47:09;95103.26;;;19.90;30.94
43553;BME280;29153;42.696;23.218;2023-10-09T10:49:45;95099.45;;;20.00;30.96
43553;BME280;29153;42.696;23.218;2023-10-09T10:52:21;95093.41;;;20.20;33.72
43553;BME280;29153;42.696;23.218;2023-10-09T10:54:51;95095.48;;;20.23;30.24
43553;BME280;29153;42.696;23.218;2023-10-09T10:57:36;95099.29;;;20.14;31.99
43553;BME280;29153;42.696;23.218;2023-10-09T11:00:11;95094.77;;;20.12;31.42
43553;BME280;29153;42.696;23.218;2023-10-09T11:02:45;95093.09;;;20.22;32.14
43553;BME280;29153;42.696;23.218;2023-10-09T11:05:14;95093.27;;;20.17;30.94
43553;BME280;29153;42.696;23.218;2023-10-09T11:07:43;95096.58;;;20.22;29.71
43553;BME280;29153;42.696;23.218;2023-10-09T11:10:10;95080.20;;;20.21;31.86
43553;BME280;29153;42.696;23.218;2023-10-09T11:12:46;95073.48;;;20.30;31.12
43553;BME280;29153;42.696;23.218;2023-10-09T11:15:16;95072.91;;;20.39;29.65
43553;BME280;29153;42.696;23.218;2023-10-09T11:18:04;95070.37;;;20.34;29.91
43553;BME280;29153;42.696;23.218;2023-10-09T11:20:37;95058.05;;;20.16;30.70
43553;BME280;29153;42.696;23.218;2023-10-09T11:23:06;95051.25;;;20.18;30.04
43553;BME280;29153;42.696;23.218;2023-10-09T11:25:46;95043.27;;;20.07;29.60
43553;BME280;29153;42.696;23.218;2023-10-09T11:28:20;95044.09;;;19.90;30.68
43553;BME280;29153;42.696;23.218;2023-10-09T11:31:12;95038.56;;;19.95;31.55
43553;BME280;29153;42.696;23.218;2023-10-09T11:33:52;95041.41;;;19.90;29.86
43553;BME280;29153;42.696;23.218;2023-10-09T11:36:24;95060.57;;;19.89;29.42
43553;BME280;29153;42.696;23.218;2023-10-09T11:38:59;95048.21;;;19.96;30.08
43553;BME280;29153;42.696;23.218;2023-10-09T11:41:44;95036.83;;;19.91;30.14
43553;BME280;29153;42.696;23.218;2023-10-09T11:44:14;95038.72;;;19.90;29.77
43553;BME280;29153;42.696;23.218;2023-10-09T11:46:58;95029.32;;;19.82;30.50
43553;BME280;29153;42.696;23.218;2023-10-09T11:49:27;95023.64;;;19.83;30.42
43553;BME280;29153;42.696;23.218;2023-10-09T11:52:06;95024.59;;;19.79;29.81
43553;BME280;29153;42.696;23.218;2023-10-09T11:54:41;95018.34;;;19.89;30.04
43553;BME280;29153;42.696;23.218;2023-10-09T11:57:10;95007.17;;;19.93;30.77
43553;BME280;29153;42.696;23.218;2023-10-09T11:59:38;95002.08;;;20.00;29.17
43553;BME280;29153;42.696;23.218;2023-10-09T12:02:07;94993.89;;;20.12;29.12
43553;BME280;29153;42.696;23.218;2023-10-09T12:04:39;94986.20;;;20.16;28.93
43553;BME280;29153;42.696;23.218;2023-10-09T12:07:10;94981.78;;;20.12;29.29
43553;BME280;29153;42.696;23.218;2023-10-09T12:09:41;94976.95;;;20.11;28.21
43553;BME280;29153;42.696;23.218;2023-10-09T12:12:08;94981.61;;;20.17;28.69
43553;BME280;29153;42.696;23.218;2023-10-09T12:14:36;94979.13;;;20.26;28.41
43553;BME280;29153;42.696;23.218;2023-10-09T12:17:07;94973.75;;;20.26;28.42
43553;BME280;29153;42.696;23.218;2023-10-09T12:19:36;94966.53;;;20.33;26.22
43553;BME280;29153;42.696;23.218;2023-10-09T12:22:06;94965.16;;;20.18;26.92
43553;BME280;29153;42.696;23.218;2023-10-09T12:24:36;94961.44;;;20.17;26.82
43553;BME280;29153;42.696;23.218;2023-10-09T12:27:05;94957.41;;;20.17;26.11
43553;BME280;29153;42.696;23.218;2023-10-09T12:29:39;94949.77;;;20.36;27.63
43553;BME280;29153;42.696;23.218;2023-10-09T12:32:03;94952.48;;;20.42;26.09
43553;BME280;29153;42.696;23.218;2023-10-09T12:34:33;94953.25;;;20.36;24.90
43553;BME280;29153;42.696;23.218;2023-10-09T12:37:02;94956.16;;;20.29;25.10
43553;BME280;29153;42.696;23.218;2023-10-09T12:39:29;94951.91;;;20.28;25.30
43553;BME280;29153;42.696;23.218;2023-10-09T12:42:02;94940.39;;;20.19;25.06
43553;BME280;29153;42.696;23.218;2023-10-09T12:44:31;94940.33;;;20.13;24.68
43553;BME280;29153;42.696;23.218;2023-10-09T12:47:00;94934.67;;;20.20;24.50
43553;BME280;29153;42.696;23.218;2023-10-09T12:49:29;94927.88;;;20.23;25.07
43553;BME280;29153;42.696;23.218;2023-10-09T12:51:57;94931.36;;;20.23;25.06
43553;BME280;29153;42.696;23.218;2023-10-09T12:54:30;94923.12;;;20.20;24.19
43553;BME280;29153;42.696;23.218;2023-10-09T12:56:59;94924.39;;;20.22;22.77
43553;BME280;29153;42.696;23.218;2023-10-09T12:59:27;94921.58;;;20.33;22.92
43553;BME280;29153;42.696;23.218;2023-10-09T13:01:54;94919.94;;;20.26;24.56
43553;BME280;29153;42.696;23.218;2023-10-09T13:04:25;94913.94;;;20.21;25.00
43553;BME280;29153;42.696;23.218;2023-10-09T13:06:54;94910.33;;;20.17;27.08
43553;BME280;29153;42.696;23.218;2023-10-09T13:09:23;94906.91;;;20.22;25.41
43553;BME280;29153;42.696;23.218;2023-10-09T13:12:05;94903.00;;;20.26;23.63
43553;BME280;29153;42.696;23.218;2023-10-09T13:14:34;94896.80;;;20.19;25.35
43553;BME280;29153;42.696;23.218;2023-10-09T13:17:02;94892.92;;;20.29;25.64
43553;BME280;29153;42.696;23.218;2023-10-09T13:19:34;94892.72;;;20.28;25.95
43553;BME280;29153;42.696;23.218;2023-10-09T13:22:02;94895.29;;;20.16;26.20